Time;durP1;ratioP1;P1;durP2;ratioP2;P2;SDS_P1;SDS_P2;PMS_P1;PMS_P2;Temp;Humidity;BMP_temperature;BMP_pressure;BME280_temperature;BME280_humidity;BME280_pressure;Samples;Min_cycle;Max_cycle;Signal;HPM_P1;HPM_P2
2023/01/03 00:00:32;;;;;;;5.83;5.23;;;;;;;;;;5033713;28;20465;-80
2023/01/03 00:03:01;;;;;;;11.47;6.30;;;;;;;;;;5040349;28;20481;-80
2023/01/03 00:05:28;;;;;;;7.17;5.07;;;;;;;;;;5036350;28;20504;-80
2023/01/03 00:07:54;;;;;;;9.73;4.90;;;;;;;;;;5043983;28;20478;-80
2023/01/03 00:10:21;;;;;;;13.07;6.60;;;;;;;;;;5037006;28;20461;-80
2023/01/03 00:12:46;;;;;;;8.90;5.37;;;;;;;;;;5036073;28;20473;-80
2023/01/03 00:15:14;;;;;;;13.00;5.70;;;;;;;;;;5035360;28;20536;-80
2023/01/03 00:17:40;;;;;;;10.80;5.20;;;;;;;;;;5032572;28;20233;-80
2023/01/03 00:20:09;;;;;;;15.20;6.00;;;;;;;;;;5040386;28;20446;-80
2023/01/03 00:22:36;;;;;;;6.67;5.57;;;;;;;;;;5032643;28;20488;-80
2023/01/03 00:25:03;;;;;;;10.30;5.77;;;;;;;;;;5037146;28;20464;-80
2023/01/03 00:27:30;;;;;;;10.43;5.80;;;;;;;;;;5033903;28;20472;-80
2023/01/03 00:29:56;;;;;;;13.33;5.10;;;;;;;;;;5039848;28;20464;-79
2023/01/03 00:32:22;;;;;;;11.50;6.33;;;;;;;;;;5032328;28;20870;-79
2023/01/03 00:34:49;;;;;;;11.40;6.00;;;;;;;;;;5035708;28;20472;-80
2023/01/03 00:37:16;;;;;;;8.67;5.60;;;;;;;;;;5034489;28;20473;-80
2023/01/03 00:39:43;;;;;;;12.33;8.33;;;;;;;;;;5031954;28;20450;-80
2023/01/03 00:42:10;;;;;;;11.20;6.00;;;;;;;;;;5034531;28;20482;-80
2023/01/03 00:44:36;;;;;;;13.97;6.73;;;;;;;;;;5034228;28;20449;-80
2023/01/03 00:47:03;;;;;;;14.43;6.73;;;;;;;;;;5035452;28;20477;-80
2023/01/03 00:49:29;;;;;;;10.80;6.33;;;;;;;;;;5030443;28;20486;-80
2023/01/03 00:51:56;;;;;;;8.53;5.23;;;;;;;;;;5032708;28;20488;-80
2023/01/03 00:54:24;;;;;;;12.70;6.60;;;;;;;;;;5036281;28;20441;-80
2023/01/03 00:56:51;;;;;;;12.77;6.40;;;;;;;;;;5030815;28;20465;-80
2023/01/03 00:59:19;;;;;;;8.50;5.60;;;;;;;;;;5032764;28;20476;-80
2023/01/03 01:01:47;;;;;;;11.37;6.30;;;;;;;;;;5035595;28;20484;-80
2023/01/03 01:04:15;;;;;;;8.60;7.40;;;;;;;;;;5034459;28;20453;-80
2023/01/03 01:06:43;;;;;;;20.73;7.60;;;;;;;;;;5035892;28;20477;-80
2023/01/03 01:09:11;;;;;;;10.63;7.10;;;;;;;;;;5031752;28;20476;-80
2023/01/03 01:11:39;;;;;;;13.00;7.37;;;;;;;;;;5034296;28;20548;-80
2023/01/03 01:14:18;;;;;;;13.03;7.57;;;;;;;;;;5034223;28;20840;-80
2023/01/03 01:16:45;;;;;;;9.90;7.10;;;;;;;;;;5030036;28;20465;-80
2023/01/03 01:19:11;;;;;;;10.80;7.63;;;;;;;;;;5029643;28;20477;-80
2023/01/03 01:21:38;;;;;;;9.87;6.83;;;;;;;;;;5039090;28;20873;-80
2023/01/03 01:24:04;;;;;;;13.57;7.50;;;;;;;;;;5037390;28;20463;-80
2023/01/03 01:26:31;;;;;;;10.97;7.00;;;;;;;;;;5034367;28;20987;-80
2023/01/03 01:28:58;;;;;;;14.57;8.43;;;;;;;;;;5038112;28;20540;-80
2023/01/03 01:31:25;;;;;;;12.60;8.20;;;;;;;;;;5035177;28;20840;-79
2023/01/03 01:33:52;;;;;;;14.03;7.07;;;;;;;;;;5033149;28;20461;-80
2023/01/03 01:36:20;;;;;;;18.67;6.90;;;;;;;;;;5031335;28;20477;-79
2023/01/03 01:38:47;;;;;;;12.60;8.03;;;;;;;;;;5036368;28;20954;-80
2023/01/03 01:41:14;;;;;;;12.00;7.30;;;;;;;;;;5040833;28;20465;-80
2023/01/03 01:46:41;;;;;;;14.63;9.13;;;;;;;;;;5034482;28;20846;-80
2023/01/03 01:49:11;;;;;;;13.80;8.10;;;;;;;;;;5038285;28;20472;-80
2023/01/03 01:51:38;;;;;;;21.90;9.23;;;;;;;;;;5037452;28;20469;-80
2023/01/03 01:54:05;;;;;;;13.43;7.70;;;;;;;;;;5039614;28;20441;-80
2023/01/03 01:56:34;;;;;;;17.63;7.50;;;;;;;;;;5044109;28;20476;-80
2023/01/03 01:59:00;;;;;;;12.07;8.13;;;;;;;;;;5037621;28;20488;-80
2023/01/03 02:01:27;;;;;;;14.23;9.40;;;;;;;;;;5041908;28;20460;-80
2023/01/03 02:03:56;;;;;;;15.20;8.00;;;;;;;;;;5038854;28;20828;-79
2023/01/03 02:06:23;;;;;;;14.97;9.13;;;;;;;;;;5037731;28;20478;-80
2023/01/03 02:08:49;;;;;;;21.77;8.77;;;;;;;;;;5040669;28;20496;-80
2023/01/03 02:11:21;;;;;;;10.70;7.53;;;;;;;;;;5040006;28;20457;-80
2023/01/03 02:13:58;;;;;;;11.73;8.27;;;;;;;;;;5038188;28;20854;-80
2023/01/03 02:16:47;;;;;;;14.20;8.57;;;;;;;;;;5030351;28;21021;-80
2023/01/03 02:19:32;;;;;;;14.47;8.07;;;;;;;;;;5038542;28;20489;-80
2023/01/03 02:22:13;;;;;;;16.50;8.67;;;;;;;;;;5035367;28;20465;-80
2023/01/03 02:24:48;;;;;;;10.40;7.20;;;;;;;;;;5036680;28;20469;-80
2023/01/03 02:27:22;;;;;;;11.47;7.90;;;;;;;;;;5036756;28;20473;-80
2023/01/03 02:30:12;;;;;;;18.03;7.93;;;;;;;;;;5044981;28;20444;-80
2023/01/03 02:32:43;;;;;;;13.20;8.73;;;;;;;;;;5040081;28;20560;-80
2023/01/03 02:35:15;;;;;;;11.57;8.00;;;;;;;;;;5036867;28;20465;-80
2023/01/03 02:37:45;;;;;;;12.37;8.20;;;;;;;;;;5038761;28;21156;-80
2023/01/03 02:40:17;;;;;;;13.50;9.07;;;;;;;;;;5038736;28;20468;-80
2023/01/03 02:43:01;;;;;;;13.80;7.40;;;;;;;;;;5035524;28;20507;-80
2023/01/03 02:45:33;;;;;;;18.17;9.07;;;;;;;;;;5037229;28;20455;-80
2023/01/03 02:48:03;;;;;;;10.70;8.40;;;;;;;;;;5035297;28;20483;-80
2023/01/03 02:50:31;;;;;;;16.40;8.10;;;;;;;;;;5043026;28;20465;-80
2023/01/03 02:53:01;;;;;;;14.47;8.33;;;;;;;;;;5036588;28;20897;-80
2023/01/03 02:55:30;;;;;;;13.10;8.10;;;;;;;;;;5036564;28;20483;-80
2023/01/03 02:58:00;;;;;;;9.57;7.37;;;;;;;;;;5031871;28;20480;-80
2023/01/03 03:00:28;;;;;;;12.50;9.17;;;;;;;;;;5038308;28;20462;-80
2023/01/03 03:02:58;;;;;;;14.93;8.40;;;;;;;;;;5033352;28;20612;-80
2023/01/03 03:05:28;;;;;;;19.10;8.90;;;;;;;;;;5039840;28;20466;-80
2023/01/03 03:07:54;;;;;;;12.03;8.90;;;;;;;;;;5038150;28;20500;-80
2023/01/03 03:13:13;;;;;;;13.20;8.63;;;;;;;;;;5035324;28;20501;-80
2023/01/03 03:15:43;;;;;;;12.43;8.40;;;;;;;;;;5039828;28;20459;-80
2023/01/03 03:18:11;;;;;;;12.50;8.50;;;;;;;;;;5037486;28;20488;-80
2023/01/03 03:26:12;;;;;;;14.73;8.73;;;;;;;;;;5039926;28;20819;-80
2023/01/03 03:28:38;;;;;;;12.50;8.30;;;;;;;;;;5039565;28;20484;-79
2023/01/03 03:31:07;;;;;;;14.00;9.60;;;;;;;;;;5041539;28;20493;-79
2023/01/03 03:33:36;;;;;;;12.63;8.77;;;;;;;;;;5039429;28;20516;-80
2023/01/03 03:36:05;;;;;;;14.57;9.00;;;;;;;;;;5035461;28;20456;-80
2023/01/03 03:38:34;;;;;;;18.30;9.30;;;;;;;;;;5039956;28;20491;-80
2023/01/03 03:46:41;;;;;;;17.10;7.60;;;;;;;;;;5040676;28;20480;-80
2023/01/03 03:51:59;;;;;;;12.20;8.53;;;;;;;;;;5029253;28;20473;-80
2023/01/03 03:54:25;;;;;;;11.40;8.53;;;;;;;;;;5031939;28;20800;-80
2023/01/03 03:56:54;;;;;;;11.83;8.63;;;;;;;;;;5036085;28;20483;-79
2023/01/03 03:59:22;;;;;;;13.10;7.80;;;;;;;;;;5041878;28;20466;-80
2023/01/03 04:01:50;;;;;;;14.33;8.00;;;;;;;;;;5037903;28;20468;-80
2023/01/03 04:04:19;;;;;;;13.20;9.13;;;;;;;;;;5033505;28;20456;-80
2023/01/03 04:06:47;;;;;;;17.00;9.37;;;;;;;;;;5035830;28;20469;-80
2023/01/03 04:09:15;;;;;;;17.90;8.87;;;;;;;;;;5037193;28;20484;-80
2023/01/03 04:11:41;;;;;;;19.17;8.50;;;;;;;;;;5034785;28;20481;-80
2023/01/03 04:14:08;;;;;;;21.10;12.23;;;;;;;;;;5036694;28;20463;-80
2023/01/03 04:16:36;;;;;;;19.50;9.40;;;;;;;;;;5033715;28;20479;-80
2023/01/03 04:19:02;;;;;;;12.90;9.30;;;;;;;;;;5038331;28;20473;-80
2023/01/03 04:21:29;;;;;;;16.80;9.67;;;;;;;;;;5039428;28;20475;-80
2023/01/03 04:23:55;;;;;;;13.73;8.30;;;;;;;;;;5041148;28;20457;-80
2023/01/03 04:26:23;;;;;;;11.93;8.60;;;;;;;;;;5037136;28;20467;-80
2023/01/03 04:28:49;;;;;;;13.40;8.90;;;;;;;;;;5034857;28;20999;-80
2023/01/03 04:31:15;;;;;;;11.30;8.40;;;;;;;;;;5032484;28;20472;-79
2023/01/03 04:33:42;;;;;;;11.97;9.30;;;;;;;;;;5038483;28;20475;-80
2023/01/03 04:36:08;;;;;;;13.27;8.83;;;;;;;;;;5037260;28;20471;-80
2023/01/03 04:38:35;;;;;;;16.07;9.70;;;;;;;;;;5044549;28;20475;-81
2023/01/03 04:41:05;;;;;;;11.37;8.10;;;;;;;;;;5035669;28;20470;-81
2023/01/03 04:46:18;;;;;;;21.63;10.20;;;;;;;;;;5038057;28;20474;-81
2023/01/03 04:48:44;;;;;;;16.43;10.37;;;;;;;;;;5037527;28;20493;-80
2023/01/03 04:51:10;;;;;;;15.93;10.10;;;;;;;;;;5030426;28;20477;-80
2023/01/03 04:53:37;;;;;;;13.93;10.00;;;;;;;;;;5035794;28;20804;-80
2023/01/03 04:56:03;;;;;;;21.07;10.07;;;;;;;;;;5034332;28;20949;-80
2023/01/03 04:58:29;;;;;;;13.40;9.37;;;;;;;;;;5033952;28;20483;-79
2023/01/03 05:01:01;;;;;;;22.57;10.57;;;;;;;;;;5036793;28;20942;-80
2023/01/03 05:03:27;;;;;;;15.57;9.13;;;;;;;;;;5033352;28;20462;-80
2023/01/03 05:05:57;;;;;;;18.40;9.77;;;;;;;;;;5037435;28;20477;-81
2023/01/03 05:08:24;;;;;;;14.50;9.20;;;;;;;;;;5038169;28;20491;-81
2023/01/03 05:10:51;;;;;;;13.93;8.80;;;;;;;;;;5033499;28;20869;-81
2023/01/03 05:13:17;;;;;;;16.40;9.40;;;;;;;;;;5035008;28;20460;-80
2023/01/03 05:15:44;;;;;;;22.90;9.87;;;;;;;;;;5039559;28;21394;-80
2023/01/03 05:18:11;;;;;;;14.93;8.87;;;;;;;;;;5041819;28;20498;-80
2023/01/03 05:26:08;;;;;;;20.40;9.77;;;;;;;;;;5038459;28;20511;-81
2023/01/03 05:28:35;;;;;;;20.93;10.03;;;;;;;;;;5036415;28;20485;-80
2023/01/03 05:31:01;;;;;;;18.63;10.60;;;;;;;;;;5038906;28;20458;-81
2023/01/03 05:33:29;;;;;;;13.60;8.50;;;;;;;;;;5040284;28;20462;-80
2023/01/03 05:35:55;;;;;;;16.07;8.97;;;;;;;;;;5038016;28;20463;-80
2023/01/03 05:38:22;;;;;;;18.50;8.20;;;;;;;;;;5041311;28;20487;-80
2023/01/03 05:40:49;;;;;;;9.70;7.47;;;;;;;;;;5040299;28;20448;-80
2023/01/03 05:43:15;;;;;;;12.30;9.07;;;;;;;;;;5040287;28;20484;-80
2023/01/03 05:45:41;;;;;;;19.00;9.30;;;;;;;;;;5031684;28;20458;-81
2023/01/03 05:48:08;;;;;;;12.50;8.77;;;;;;;;;;5037753;28;20489;-80
2023/01/03 05:50:37;;;;;;;12.90;8.83;;;;;;;;;;5039724;28;20456;-81
2023/01/03 05:53:03;;;;;;;12.03;8.77;;;;;;;;;;5036562;28;20477;-81
2023/01/03 05:55:30;;;;;;;14.73;9.00;;;;;;;;;;5037287;28;20465;-80
2023/01/03 05:57:57;;;;;;;20.03;8.73;;;;;;;;;;5038393;28;20480;-80
2023/01/03 06:00:24;;;;;;;16.27;9.07;;;;;;;;;;5037549;28;20451;-80
2023/01/03 06:02:50;;;;;;;18.23;9.13;;;;;;;;;;5038163;28;20476;-80
2023/01/03 06:05:17;;;;;;;14.33;9.00;;;;;;;;;;5038682;28;20516;-80
2023/01/03 06:07:45;;;;;;;21.90;9.00;;;;;;;;;;5040569;28;20492;-80
2023/01/03 06:10:11;;;;;;;16.30;8.73;;;;;;;;;;5041699;28;20540;-81
2023/01/03 06:12:37;;;;;;;17.17;10.20;;;;;;;;;;5039150;28;20849;-80
2023/01/03 06:15:04;;;;;;;14.10;8.73;;;;;;;;;;5043338;28;20448;-80
2023/01/03 06:20:15;;;;;;;16.23;8.70;;;;;;;;;;5035804;28;20822;-80
2023/01/03 06:22:41;;;;;;;21.67;8.73;;;;;;;;;;5037628;28;20472;-80
2023/01/03 06:25:09;;;;;;;14.50;10.47;;;;;;;;;;5032969;28;20451;-81
2023/01/03 06:27:37;;;;;;;19.53;9.27;;;;;;;;;;5031119;28;20470;-80
2023/01/03 06:30:04;;;;;;;12.87;9.73;;;;;;;;;;5039477;28;20481;-81
2023/01/03 06:32:30;;;;;;;17.00;10.00;;;;;;;;;;5044013;28;20476;-80
2023/01/03 06:34:57;;;;;;;18.70;11.00;;;;;;;;;;5039003;28;20465;-81
2023/01/03 06:37:23;;;;;;;19.90;10.20;;;;;;;;;;5036487;28;20488;-80
2023/01/03 06:39:49;;;;;;;19.00;11.07;;;;;;;;;;5036919;28;20465;-81
2023/01/03 06:53:17;;;;;;;21.43;12.07;;;;;;;;;;5036963;28;20467;-81
2023/01/03 06:55:45;;;;;;;20.77;12.40;;;;;;;;;;5036560;28;20460;-81
2023/01/03 06:58:13;;;;;;;22.00;12.80;;;;;;;;;;5037381;28;20476;-81
2023/01/03 07:00:40;;;;;;;22.33;13.60;;;;;;;;;;5041009;28;20469;-81
2023/01/03 07:03:07;;;;;;;23.13;12.97;;;;;;;;;;5033962;28;20489;-80
2023/01/03 07:05:33;;;;;;;29.13;14.67;;;;;;;;;;5038279;28;20464;-81
2023/01/03 07:08:00;;;;;;;23.80;13.90;;;;;;;;;;5036534;28;20487;-81
2023/01/03 07:10:26;;;;;;;25.17;13.37;;;;;;;;;;5035109;28;20458;-81
2023/01/03 07:15:42;;;;;;;25.33;13.43;;;;;;;;;;5033821;28;20966;-81
2023/01/03 07:18:08;;;;;;;25.07;14.20;;;;;;;;;;5035708;28;20485;-81
2023/01/03 07:20:35;;;;;;;23.07;15.10;;;;;;;;;;5036300;28;20465;-81
2023/01/03 07:23:01;;;;;;;24.73;14.30;;;;;;;;;;5040466;28;20484;-81
2023/01/03 07:25:27;;;;;;;24.50;14.47;;;;;;;;;;5035767;28;20454;-80
2023/01/03 07:27:55;;;;;;;26.70;13.50;;;;;;;;;;5039430;28;20477;-81
2023/01/03 07:30:21;;;;;;;28.97;15.13;;;;;;;;;;5037265;28;20502;-81
2023/01/03 07:32:49;;;;;;;27.63;14.20;;;;;;;;;;5037475;28;20506;-81
2023/01/03 07:35:15;;;;;;;28.93;15.07;;;;;;;;;;5040280;28;20465;-80
2023/01/03 07:37:42;;;;;;;24.37;14.00;;;;;;;;;;5039062;28;20477;-81
2023/01/03 07:40:09;;;;;;;31.53;15.90;;;;;;;;;;5034702;28;20450;-81
2023/01/03 07:45:27;;;;;;;29.30;14.90;;;;;;;;;;5027555;28;20437;-80
2023/01/03 07:47:57;;;;;;;29.90;16.23;;;;;;;;;;5034347;28;20477;-80
2023/01/03 07:50:23;;;;;;;38.97;17.73;;;;;;;;;;5039434;28;20486;-80
2023/01/03 07:52:49;;;;;;;31.70;17.07;;;;;;;;;;5040643;28;20480;-80
2023/01/03 07:55:17;;;;;;;30.40;16.20;;;;;;;;;;5039839;28;20464;-80
2023/01/03 07:57:46;;;;;;;28.70;16.60;;;;;;;;;;5032388;28;20474;-80
2023/01/03 08:00:13;;;;;;;34.33;17.73;;;;;;;;;;5042185;28;20461;-80
2023/01/03 08:02:39;;;;;;;36.33;17.37;;;;;;;;;;5034522;28;20473;-80
2023/01/03 08:05:08;;;;;;;35.20;18.07;;;;;;;;;;5035213;28;20453;-80
2023/01/03 08:07:35;;;;;;;31.37;19.00;;;;;;;;;;5035885;28;20491;-81
2023/01/03 08:15:30;;;;;;;34.03;17.77;;;;;;;;;;5037689;28;20453;-80
2023/01/03 08:17:56;;;;;;;43.10;20.43;;;;;;;;;;5035011;28;20473;-80
2023/01/03 08:20:24;;;;;;;35.63;19.80;;;;;;;;;;5034680;28;20446;-80
2023/01/03 08:22:50;;;;;;;38.23;19.63;;;;;;;;;;5037111;28;20479;-80
2023/01/03 08:25:17;;;;;;;32.47;17.43;;;;;;;;;;5040210;28;20802;-80
2023/01/03 08:27:44;;;;;;;53.27;21.73;;;;;;;;;;5033113;28;20488;-80
2023/01/03 08:30:11;;;;;;;40.70;20.10;;;;;;;;;;5033180;28;21052;-80
2023/01/03 08:32:37;;;;;;;41.17;21.63;;;;;;;;;;5035008;28;20472;-80
2023/01/03 08:35:06;;;;;;;38.40;21.97;;;;;;;;;;5041359;28;20826;-80
2023/01/03 08:37:34;;;;;;;46.33;24.17;;;;;;;;;;5034230;28;21010;-80
2023/01/03 08:40:03;;;;;;;48.10;22.60;;;;;;;;;;5038144;28;20453;-80
2023/01/03 08:42:31;;;;;;;46.80;22.40;;;;;;;;;;5035067;28;21007;-80
2023/01/03 08:45:00;;;;;;;39.83;21.57;;;;;;;;;;5033770;28;20480;-80
2023/01/03 08:47:28;;;;;;;48.47;23.77;;;;;;;;;;5033270;28;20489;-80
2023/01/03 08:49:55;;;;;;;40.70;22.70;;;;;;;;;;5036109;28;20495;-80
2023/01/03 08:52:21;;;;;;;44.87;23.57;;;;;;;;;;5043508;28;20476;-80
2023/01/03 08:54:49;;;;;;;48.63;25.33;;;;;;;;;;5039943;28;20448;-80
2023/01/03 08:57:16;;;;;;;57.57;26.93;;;;;;;;;;5039661;28;21184;-80
2023/01/03 08:59:42;;;;;;;48.23;26.00;;;;;;;;;;5038270;28;20529;-80
2023/01/03 09:02:08;;;;;;;62.70;26.83;;;;;;;;;;5039657;28;20472;-80
2023/01/03 09:04:35;;;;;;;54.10;26.00;;;;;;;;;;5040182;28;20468;-80
2023/01/03 09:07:01;;;;;;;54.93;26.30;;;;;;;;;;5039341;28;20474;-80
2023/01/03 09:09:27;;;;;;;57.57;24.87;;;;;;;;;;5036748;28;20998;-80
2023/01/03 09:11:55;;;;;;;47.30;23.00;;;;;;;;;;5042702;28;20478;-80
2023/01/03 09:14:21;;;;;;;58.30;28.07;;;;;;;;;;5039339;28;20448;-80
2023/01/03 09:16:48;;;;;;;61.73;27.97;;;;;;;;;;5041115;28;20468;-80
2023/01/03 09:19:14;;;;;;;61.67;27.40;;;;;;;;;;5038869;28;20839;-80
2023/01/03 09:21:40;;;;;;;68.30;30.47;;;;;;;;;;5033385;28;20488;-80
2023/01/03 09:24:07;;;;;;;86.13;33.20;;;;;;;;;;5040429;28;20458;-79
2023/01/03 09:26:33;;;;;;;60.97;31.73;;;;;;;;;;5038657;28;21012;-80
2023/01/03 09:29:01;;;;;;;78.00;36.60;;;;;;;;;;5042135;28;20497;-80
2023/01/03 09:31:28;;;;;;;78.80;34.80;;;;;;;;;;5040534;28;20479;-80
2023/01/03 09:33:55;;;;;;;83.03;35.80;;;;;;;;;;5046592;28;20452;-80
2023/01/03 09:36:21;;;;;;;81.13;35.03;;;;;;;;;;5037957;28;20486;-80
2023/01/03 09:38:47;;;;;;;68.83;31.40;;;;;;;;;;5041590;28;20491;-80
2023/01/03 09:41:17;;;;;;;77.43;33.57;;;;;;;;;;5041871;28;20547;-79
2023/01/03 09:43:46;;;;;;;70.93;31.90;;;;;;;;;;5040579;28;20954;-79
2023/01/03 09:46:16;;;;;;;72.07;32.47;;;;;;;;;;5027131;28;20473;-77
2023/01/03 09:48:43;;;;;;;75.03;32.50;;;;;;;;;;5009442;28;20485;-77
2023/01/03 10:05:27;;;;;;;83.10;33.47;;;;;;;;;;5000403;28;20527;-77
2023/01/03 10:08:03;;;;;;;77.17;31.97;;;;;;;;;;5007705;28;20486;-77
2023/01/03 10:10:38;;;;;;;72.90;33.37;;;;;;;;;;5011278;28;20469;-77
2023/01/03 10:13:11;;;;;;;85.83;36.20;;;;;;;;;;5004058;28;20480;-77
2023/01/03 10:15:41;;;;;;;81.40;35.40;;;;;;;;;;5003105;28;20455;-82
2023/01/03 10:18:17;;;;;;;76.07;34.70;;;;;;;;;;5012255;28;20489;-79
2023/01/03 10:20:46;;;;;;;72.97;33.27;;;;;;;;;;5020810;28;20457;-79
2023/01/03 10:23:13;;;;;;;68.93;33.70;;;;;;;;;;5011340;28;20481;-79
2023/01/03 10:25:42;;;;;;;68.73;29.97;;;;;;;;;;5014675;28;20471;-79
2023/01/03 10:28:12;;;;;;;62.40;27.90;;;;;;;;;;5015371;28;20481;-79
2023/01/03 10:30:46;;;;;;;58.23;27.63;;;;;;;;;;5013094;28;20489;-79
2023/01/03 10:33:30;;;;;;;53.17;27.27;;;;;;;;;;5017952;28;20484;-79
2023/01/03 10:35:57;;;;;;;62.33;28.27;;;;;;;;;;5017638;28;20455;-79
2023/01/03 10:38:24;;;;;;;54.37;27.20;;;;;;;;;;5020188;28;20479;-79
2023/01/03 10:40:51;;;;;;;60.60;27.57;;;;;;;;;;5013754;28;20532;-79
2023/01/03 10:43:19;;;;;;;54.77;26.90;;;;;;;;;;5019140;28;20445;-79
2023/01/03 10:45:49;;;;;;;51.07;24.73;;;;;;;;;;5011042;28;20447;-79
2023/01/03 10:48:16;;;;;;;52.23;25.60;;;;;;;;;;5017639;28;20469;-79
2023/01/03 10:50:43;;;;;;;53.43;26.60;;;;;;;;;;5017295;28;20482;-79
2023/01/03 10:53:11;;;;;;;56.47;28.33;;;;;;;;;;5016314;28;20478;-79
2023/01/03 10:55:44;;;;;;;54.60;26.07;;;;;;;;;;5013921;28;20466;-79
2023/01/03 10:58:15;;;;;;;52.97;25.50;;;;;;;;;;5004771;28;20512;-79
2023/01/03 11:00:42;;;;;;;58.83;27.60;;;;;;;;;;5017113;28;20448;-79
2023/01/03 11:03:13;;;;;;;51.73;25.23;;;;;;;;;;5012622;28;20469;-79
2023/01/03 11:05:42;;;;;;;54.93;29.13;;;;;;;;;;5015297;28;20472;-79
2023/01/03 11:08:15;;;;;;;64.87;27.27;;;;;;;;;;5013942;28;20509;-79
2023/01/03 11:10:50;;;;;;;62.50;30.47;;;;;;;;;;5016117;28;20466;-79
2023/01/03 11:13:21;;;;;;;60.63;32.47;;;;;;;;;;5014408;28;20477;-79
2023/01/03 11:15:52;;;;;;;64.33;31.17;;;;;;;;;;5016097;28;20460;-79
2023/01/03 11:18:20;;;;;;;58.97;33.53;;;;;;;;;;5016227;28;20496;-79
2023/01/03 11:20:50;;;;;;;61.50;31.10;;;;;;;;;;5016451;28;20462;-79
2023/01/03 11:23:25;;;;;;;55.13;27.73;;;;;;;;;;5006020;28;20453;-79
2023/01/03 11:25:56;;;;;;;61.87;31.07;;;;;;;;;;5012723;28;20462;-79
2023/01/03 11:28:41;;;;;;;61.53;32.17;;;;;;;;;;5013493;28;20483;-79
2023/01/03 11:31:11;;;;;;;62.37;33.03;;;;;;;;;;5014872;28;20481;-79
2023/01/03 11:33:49;;;;;;;66.70;30.70;;;;;;;;;;5015632;28;20960;-79
2023/01/03 11:36:21;;;;;;;64.73;34.13;;;;;;;;;;5015224;28;20505;-79
2023/01/03 11:38:56;;;;;;;61.00;32.43;;;;;;;;;;5014380;28;20483;-80
2023/01/03 11:41:37;;;;;;;60.07;30.13;;;;;;;;;;5014751;28;20488;-79
2023/01/03 11:44:19;;;;;;;56.60;29.10;;;;;;;;;;5010420;28;20458;-79
2023/01/03 11:46:53;;;;;;;56.07;29.67;;;;;;;;;;5009963;28;20480;-79
2023/01/03 11:49:28;;;;;;;56.10;28.00;;;;;;;;;;5012949;28;20481;-79
2023/01/03 11:52:00;;;;;;;59.30;28.70;;;;;;;;;;5018036;28;20477;-79
2023/01/03 11:54:39;;;;;;;54.77;28.13;;;;;;;;;;5012947;28;21077;-79
2023/01/03 11:57:10;;;;;;;47.20;27.50;;;;;;;;;;5014916;28;20474;-79
2023/01/03 11:59:45;;;;;;;52.50;26.03;;;;;;;;;;5014819;28;20465;-79
2023/01/03 12:02:30;;;;;;;54.13;27.80;;;;;;;;;;5016444;28;20476;-80
2023/01/03 12:05:03;;;;;;;47.23;25.00;;;;;;;;;;5013105;28;20450;-80
2023/01/03 12:07:34;;;;;;;54.33;29.27;;;;;;;;;;5017633;28;20483;-80
2023/01/03 12:10:04;;;;;;;52.53;27.93;;;;;;;;;;5017661;28;20477;-79
2023/01/03 12:12:49;;;;;;;58.50;27.93;;;;;;;;;;5019432;28;20548;-79
2023/01/03 12:15:18;;;;;;;50.63;27.43;;;;;;;;;;5014998;28;20449;-80
2023/01/03 12:17:48;;;;;;;52.13;26.13;;;;;;;;;;5007119;28;20482;-79
2023/01/03 12:20:17;;;;;;;49.20;25.93;;;;;;;;;;5013417;28;20458;-80
2023/01/03 12:22:45;;;;;;;55.33;27.90;;;;;;;;;;5021078;28;20474;-79
2023/01/03 12:25:18;;;;;;;53.80;25.97;;;;;;;;;;5019154;28;20999;-80
2023/01/03 12:27:48;;;;;;;60.97;30.37;;;;;;;;;;5017077;28;20561;-80
2023/01/03 12:30:23;;;;;;;56.87;29.90;;;;;;;;;;5018612;28;20473;-80
2023/01/03 12:32:51;;;;;;;50.43;28.50;;;;;;;;;;5015491;28;20469;-80
2023/01/03 12:35:23;;;;;;;56.17;28.43;;;;;;;;;;5017817;28;20446;-79
2023/01/03 12:37:50;;;;;;;46.90;27.73;;;;;;;;;;5014004;28;20480;-80
2023/01/03 12:40:22;;;;;;;48.03;26.50;;;;;;;;;;5018954;28;20966;-79
2023/01/03 12:42:54;;;;;;;43.43;28.10;;;;;;;;;;5015970;28;20481;-79
2023/01/03 12:45:27;;;;;;;48.90;27.80;;;;;;;;;;5017074;28;20533;-80
2023/01/03 12:47:57;;;;;;;56.43;29.20;;;;;;;;;;5016307;28;20562;-80
2023/01/03 12:50:26;;;;;;;53.10;29.53;;;;;;;;;;5018389;28;21100;-79
2023/01/03 12:52:55;;;;;;;47.57;26.37;;;;;;;;;;5017011;28;20469;-79
2023/01/03 12:55:24;;;;;;;50.77;26.43;;;;;;;;;;5019703;28;20515;-79
2023/01/03 12:57:56;;;;;;;47.47;27.47;;;;;;;;;;5011491;28;20582;-79
2023/01/03 13:00:41;;;;;;;54.50;25.10;;;;;;;;;;5015979;28;20444;-79
2023/01/03 13:03:15;;;;;;;54.80;26.77;;;;;;;;;;5013934;28;20485;-79
2023/01/03 13:05:46;;;;;;;45.50;27.20;;;;;;;;;;5018518;28;20830;-79
2023/01/03 13:08:16;;;;;;;50.80;28.43;;;;;;;;;;5020459;28;20477;-80
2023/01/03 13:10:49;;;;;;;45.27;26.93;;;;;;;;;;5013149;28;20477;-79
2023/01/03 13:13:17;;;;;;;49.80;27.23;;;;;;;;;;5015026;28;20474;-80
2023/01/03 13:15:45;;;;;;;50.17;27.60;;;;;;;;;;5014547;28;20469;-79
2023/01/03 13:18:29;;;;;;;48.10;27.53;;;;;;;;;;5018649;28;20567;-79
2023/01/03 13:20:56;;;;;;;44.43;25.00;;;;;;;;;;5017584;28;20485;-79
2023/01/03 13:23:33;;;;;;;42.00;26.27;;;;;;;;;;5019634;28;20445;-79
2023/01/03 13:26:18;;;;;;;51.57;28.67;;;;;;;;;;5015346;28;20447;-79
2023/01/03 13:28:46;;;;;;;51.20;27.47;;;;;;;;;;5015339;28;20466;-79
2023/01/03 13:31:42;;;;;;;43.40;25.50;;;;;;;;;;5013501;28;20463;-80
2023/01/03 13:34:15;;;;;;;48.20;28.97;;;;;;;;;;5018839;28;20868;-79
2023/01/03 13:36:57;;;;;;;53.37;29.30;;;;;;;;;;5012208;28;20626;-79
2023/01/03 13:39:31;;;;;;;50.93;28.77;;;;;;;;;;5014938;28;20478;-80
2023/01/03 13:41:57;;;;;;;56.00;28.30;;;;;;;;;;5020813;28;20473;-79
2023/01/03 13:44:25;;;;;;;52.53;29.27;;;;;;;;;;5018665;28;20454;-79
2023/01/03 13:46:51;;;;;;;49.93;29.60;;;;;;;;;;5019485;28;20849;-79
2023/01/03 13:49:19;;;;;;;49.07;28.57;;;;;;;;;;5016544;28;20478;-79
2023/01/03 13:51:47;;;;;;;47.90;28.73;;;;;;;;;;5018630;28;20480;-79
2023/01/03 13:54:32;;;;;;;56.93;30.47;;;;;;;;;;5015080;28;20448;-79
2023/01/03 13:57:03;;;;;;;59.27;31.13;;;;;;;;;;5019717;28;20474;-79
2023/01/03 13:59:34;;;;;;;47.80;29.97;;;;;;;;;;5017814;28;20811;-79
2023/01/03 14:02:18;;;;;;;51.07;28.97;;;;;;;;;;5016112;28;20474;-79
2023/01/03 14:05:01;;;;;;;48.97;28.40;;;;;;;;;;5013176;28;20469;-80
2023/01/03 14:07:42;;;;;;;52.13;29.00;;;;;;;;;;5015617;28;20481;-80
2023/01/03 14:10:26;;;;;;;50.27;30.40;;;;;;;;;;5018230;28;20452;-79
2023/01/03 14:13:10;;;;;;;50.93;28.10;;;;;;;;;;5022661;28;20474;-79
2023/01/03 14:15:38;;;;;;;48.17;27.00;;;;;;;;;;5022144;28;20483;-79
2023/01/03 14:18:12;;;;;;;54.57;29.50;;;;;;;;;;5019244;28;20481;-79
2023/01/03 14:20:39;;;;;;;59.30;32.50;;;;;;;;;;5007532;28;20458;-79
2023/01/03 14:23:08;;;;;;;53.80;29.30;;;;;;;;;;5011133;28;20488;-79
2023/01/03 14:25:35;;;;;;;54.17;28.73;;;;;;;;;;5017174;28;20459;-79
2023/01/03 14:28:02;;;;;;;43.97;25.90;;;;;;;;;;5015208;28;20486;-79
2023/01/03 14:30:29;;;;;;;51.47;27.90;;;;;;;;;;5001305;28;20936;-80
2023/01/03 14:32:57;;;;;;;56.50;29.23;;;;;;;;;;5018260;28;20477;-79
2023/01/03 14:35:31;;;;;;;54.80;30.00;;;;;;;;;;5016139;28;20521;-80
2023/01/03 14:37:57;;;;;;;56.00;29.83;;;;;;;;;;5018899;28;20485;-79
2023/01/03 14:40:23;;;;;;;57.30;31.07;;;;;;;;;;5020690;28;20462;-80
2023/01/03 14:42:50;;;;;;;53.87;29.97;;;;;;;;;;5021325;28;20481;-80
2023/01/03 14:45:18;;;;;;;51.50;29.67;;;;;;;;;;5023929;28;20454;-79
2023/01/03 14:47:44;;;;;;;54.60;30.83;;;;;;;;;;5016492;28;20494;-79
2023/01/03 14:50:14;;;;;;;56.80;31.23;;;;;;;;;;5021211;28;20466;-80
2023/01/03 14:52:42;;;;;;;50.70;27.17;;;;;;;;;;5019725;28;20540;-80
2023/01/03 14:55:13;;;;;;;58.50;29.63;;;;;;;;;;5018133;28;20468;-80
2023/01/03 14:57:41;;;;;;;53.57;29.40;;;;;;;;;;5019737;28;21019;-80
2023/01/03 15:00:12;;;;;;;42.03;26.70;;;;;;;;;;5016413;28;20455;-79
2023/01/03 15:02:40;;;;;;;54.30;29.63;;;;;;;;;;5018014;28;22183;-79
2023/01/03 15:05:23;;;;;;;56.40;32.33;;;;;;;;;;5023259;28;20548;-80
2023/01/03 15:07:49;;;;;;;52.70;30.50;;;;;;;;;;5018610;28;20483;-79
2023/01/03 15:10:18;;;;;;;42.00;26.63;;;;;;;;;;5015073;28;20461;-80
2023/01/03 15:12:45;;;;;;;54.00;27.40;;;;;;;;;;5013283;28;20485;-80
2023/01/03 15:15:22;;;;;;;55.80;29.53;;;;;;;;;;5019113;28;20546;-79
2023/01/03 15:17:49;;;;;;;47.60;29.07;;;;;;;;;;5021861;28;20495;-80
2023/01/03 15:20:19;;;;;;;51.33;27.50;;;;;;;;;;5020032;28;20463;-80
2023/01/03 15:22:46;;;;;;;56.17;31.83;;;;;;;;;;5021721;28;20470;-80
2023/01/03 15:25:17;;;;;;;50.63;28.53;;;;;;;;;;5021153;28;20460;-79
2023/01/03 15:27:45;;;;;;;58.77;30.10;;;;;;;;;;5013792;28;20475;-80
2023/01/03 15:30:21;;;;;;;54.30;29.93;;;;;;;;;;5016767;28;20965;-80
2023/01/03 15:32:55;;;;;;;49.70;28.90;;;;;;;;;;5020442;28;20496;-80
2023/01/03 15:35:29;;;;;;;51.33;29.43;;;;;;;;;;5012851;28;20452;-80
2023/01/03 15:37:55;;;;;;;52.20;29.63;;;;;;;;;;5017891;28;20486;-80
2023/01/03 15:40:22;;;;;;;50.70;29.20;;;;;;;;;;5016263;28;20469;-80
2023/01/03 15:45:36;;;;;;;52.60;29.10;;;;;;;;;;5019570;28;20417;-79